gordon.dewis.ca - Random musings from Gordon

Subscribe

Could be an interesting afternoon, weatherwise

July 17, 2013 @ 11:50 By: gordon Category: Weather

It looks like this afternoon could be exciting with possibilities of thunderstorms and hail appearing in the forecast this afternoon and Environment Canada issued a severe thunderstorm watch at 10:55. Now, they’re only listed as 40% probabilities so it’s not certain that they’ll arrive but all the conditions look favourable: extreme heat and humdity. If they do arrive hopefully they’ll knock some of the humidity out of the air.

TAF CYOW 171438Z 1715/1812 26008KT P6SM FEW160
FM171700 25012KT P6SM SCT050 PROB40 1717/1719 VRB20G30KT 3/4SM +TSGRRA BR BKN020CB OVC050
FM172100 26009KT P6SM FEW020 SCT050 PROB40 1722/1724 VRB20G30KT 3/4SM +TSGRRA BR BKN020CB OVC050
FM180000 36015KT 6SM BR BKN020 TEMPO 1800/1804 P6SM NSW FEW020
FM180400 23003KT 3SM BR BKN040 PROB30 1804/1806 VRB15G25KT 11/2SM +TSRA BR BKN020CB
FM180600 28003KT 3SM BR BKN030
FM180900 23003KT 2SM BR SCT020
RMK NXT FCST BY 171800Z=

 

Leave a Reply

CAPTCHA
*